Time;durP1;ratioP1;P1;durP2;ratioP2;P2;SDS_P1;SDS_P2;PMS_P1;PMS_P2;Temp;Humidity;BMP_temperature;BMP_pressure;BME280_temperature;BME280_humidity;BME280_pressure;Samples;Min_cycle;Max_cycle;Signal;HPM_P1;HPM_P2
2023/08/10 00:00:53;;;;;;;3.03;1.40;;;;;;;;;;4970051;28;20038;-74
2023/08/10 00:03:18;;;;;;;2.70;1.60;;;;;;;;;;4975959;28;20046;-75
2023/08/10 00:05:44;;;;;;;2.00;1.60;;;;;;;;;;4974484;28;20039;-75
2023/08/10 00:08:09;;;;;;;2.05;1.20;;;;;;;;;;4976602;28;20034;-75
2023/08/10 00:10:35;;;;;;;1.60;1.50;;;;;;;;;;4976237;28;20126;-75
2023/08/10 00:13:01;;;;;;;2.10;1.30;;;;;;;;;;4976439;28;20031;-75
2023/08/10 00:15:26;;;;;;;3.00;1.52;;;;;;;;;;4967390;28;20051;-75
2023/08/10 00:17:51;;;;;;;2.30;1.60;;;;;;;;;;4977483;28;20039;-75
2023/08/10 00:20:17;;;;;;;4.30;1.80;;;;;;;;;;4977316;28;20085;-76
2023/08/10 00:22:42;;;;;;;3.47;2.22;;;;;;;;;;4975875;28;20511;-75
2023/08/10 00:25:08;;;;;;;2.03;1.60;;;;;;;;;;4976798;28;20584;-75
2023/08/10 00:27:35;;;;;;;1.73;1.40;;;;;;;;;;4970133;28;20035;-75
2023/08/10 00:30:00;;;;;;;1.70;1.23;;;;;;;;;;4976180;28;20054;-74
2023/08/10 00:32:26;;;;;;;2.58;1.73;;;;;;;;;;4979324;28;20404;-75
2023/08/10 00:34:51;;;;;;;2.65;1.55;;;;;;;;;;4978371;28;20483;-75
2023/08/10 00:37:17;;;;;;;1.33;1.23;;;;;;;;;;4976303;28;20034;-75
2023/08/10 00:39:42;;;;;;;1.63;1.40;;;;;;;;;;4976799;28;20081;-74
2023/08/10 00:42:08;;;;;;;1.17;1.08;;;;;;;;;;4964328;28;20042;-75
2023/08/10 00:44:34;;;;;;;1.80;1.48;;;;;;;;;;4975503;28;20149;-75
2023/08/10 00:46:59;;;;;;;2.63;1.60;;;;;;;;;;4975072;28;20091;-75
2023/08/10 00:49:25;;;;;;;3.10;1.65;;;;;;;;;;4975038;28;20042;-75
2023/08/10 00:51:51;;;;;;;3.28;1.40;;;;;;;;;;4945298;28;20756;-74
2023/08/10 00:54:16;;;;;;;1.70;1.20;;;;;;;;;;4968946;28;20127;-75
2023/08/10 00:56:42;;;;;;;2.03;1.50;;;;;;;;;;4967139;28;20034;-75
2023/08/10 00:59:08;;;;;;;1.70;1.60;;;;;;;;;;4975347;28;20141;-75
2023/08/10 01:01:34;;;;;;;2.17;1.40;;;;;;;;;;4977933;28;20039;-75
2023/08/10 01:04:00;;;;;;;1.40;1.30;;;;;;;;;;4974564;28;20495;-75
2023/08/10 01:06:34;;;;;;;1.83;1.20;;;;;;;;;;4975658;28;20041;-75
2023/08/10 01:09:10;;;;;;;1.52;1.13;;;;;;;;;;4967530;28;20086;-75
2023/08/10 01:11:41;;;;;;;1.83;1.60;;;;;;;;;;4973512;28;20446;-75
2023/08/10 01:14:30;;;;;;;1.33;1.23;;;;;;;;;;4977260;28;20038;-75
2023/08/10 01:16:59;;;;;;;2.65;1.70;;;;;;;;;;4977138;28;20061;-75
2023/08/10 01:19:35;;;;;;;2.22;1.60;;;;;;;;;;4963960;28;20049;-75
2023/08/10 01:22:13;;;;;;;1.30;1.20;;;;;;;;;;4977839;28;20034;-75
2023/08/10 01:24:43;;;;;;;1.40;1.30;;;;;;;;;;4979260;28;20050;-76
2023/08/10 01:27:10;;;;;;;1.42;1.30;;;;;;;;;;4977379;28;20042;-75
2023/08/10 01:29:36;;;;;;;2.83;1.23;;;;;;;;;;4980969;28;20043;-75
2023/08/10 01:32:02;;;;;;;1.23;1.13;;;;;;;;;;4970042;28;20049;-75
2023/08/10 01:34:27;;;;;;;4.45;1.58;;;;;;;;;;4975824;28;20034;-75
2023/08/10 01:36:53;;;;;;;1.73;1.55;;;;;;;;;;4976901;28;20040;-75
2023/08/10 01:39:18;;;;;;;1.25;1.10;;;;;;;;;;4975878;28;21730;-75
2023/08/10 01:41:43;;;;;;;1.10;1.00;;;;;;;;;;4977798;28;20035;-75
2023/08/10 01:44:09;;;;;;;1.70;1.40;;;;;;;;;;4977515;28;20042;-74
2023/08/10 01:46:38;;;;;;;2.80;1.33;;;;;;;;;;4967081;28;20114;-75
2023/08/10 01:49:07;;;;;;;2.80;1.77;;;;;;;;;;4960781;28;20046;-75
2023/08/10 01:51:34;;;;;;;2.67;1.75;;;;;;;;;;4977022;28;20081;-75
2023/08/10 01:54:03;;;;;;;1.20;1.02;;;;;;;;;;4977056;28;20038;-75
2023/08/10 01:56:29;;;;;;;2.38;1.30;;;;;;;;;;4980656;28;20098;-75
2023/08/10 01:58:54;;;;;;;1.15;0.90;;;;;;;;;;4969619;28;20037;-75
2023/08/10 02:01:20;;;;;;;2.10;1.90;;;;;;;;;;4975671;28;20066;-75
2023/08/10 02:03:45;;;;;;;1.95;1.70;;;;;;;;;;4978014;28;20065;-75
2023/08/10 02:06:11;;;;;;;2.05;1.65;;;;;;;;;;4981645;28;20119;-75
2023/08/10 02:08:36;;;;;;;1.88;1.50;;;;;;;;;;4980603;28;20054;-75
2023/08/10 02:11:02;;;;;;;3.25;1.75;;;;;;;;;;4980258;28;20034;-75
2023/08/10 02:13:27;;;;;;;2.47;1.90;;;;;;;;;;4972968;28;20039;-75
2023/08/10 02:15:52;;;;;;;1.77;1.60;;;;;;;;;;4981133;28;20042;-74
2023/08/10 02:18:18;;;;;;;2.38;1.67;;;;;;;;;;4978593;28;20046;-75
2023/08/10 02:20:44;;;;;;;2.10;1.77;;;;;;;;;;4980662;28;20128;-75
2023/08/10 02:23:09;;;;;;;1.88;1.52;;;;;;;;;;4981666;28;20050;-75
2023/08/10 02:25:34;;;;;;;2.35;1.60;;;;;;;;;;4983606;28;20121;-75
2023/08/10 02:28:00;;;;;;;1.40;1.30;;;;;;;;;;4968476;28;20035;-76
2023/08/10 02:30:25;;;;;;;1.50;1.40;;;;;;;;;;4983717;28;20125;-75
2023/08/10 02:32:51;;;;;;;1.27;1.17;;;;;;;;;;4980282;28;20061;-75
2023/08/10 02:35:16;;;;;;;5.82;2.20;;;;;;;;;;4981508;28;20568;-75
2023/08/10 02:37:42;;;;;;;1.50;1.40;;;;;;;;;;4980730;28;20029;-75
2023/08/10 02:40:10;;;;;;;0.98;0.90;;;;;;;;;;4977867;28;20069;-75
2023/08/10 02:42:35;;;;;;;2.38;1.60;;;;;;;;;;4966563;28;20083;-75
2023/08/10 02:45:01;;;;;;;3.42;1.98;;;;;;;;;;4964790;28;20034;-75
2023/08/10 02:47:27;;;;;;;1.77;1.60;;;;;;;;;;4978584;28;20043;-74
2023/08/10 02:49:52;;;;;;;1.33;1.23;;;;;;;;;;4978779;28;20050;-75
2023/08/10 02:52:18;;;;;;;1.00;1.00;;;;;;;;;;4976392;28;20035;-75
2023/08/10 02:54:43;;;;;;;1.98;1.30;;;;;;;;;;4970500;28;20029;-75
2023/08/10 02:57:08;;;;;;;1.50;1.30;;;;;;;;;;4977733;28;20045;-75
2023/08/10 02:59:34;;;;;;;2.22;1.70;;;;;;;;;;4983041;28;20574;-75
2023/08/10 03:01:59;;;;;;;1.80;1.40;;;;;;;;;;4978390;28;20062;-74
2023/08/10 03:04:25;;;;;;;1.98;1.23;;;;;;;;;;4979399;28;20450;-75
2023/08/10 03:06:51;;;;;;;2.42;1.45;;;;;;;;;;4977849;28;20035;-75
2023/08/10 03:09:16;;;;;;;1.60;1.50;;;;;;;;;;4972526;28;20061;-75
2023/08/10 03:11:41;;;;;;;2.83;2.03;;;;;;;;;;4980127;28;20045;-75
2023/08/10 03:14:07;;;;;;;1.20;1.00;;;;;;;;;;4974799;28;20046;-74
2023/08/10 03:16:32;;;;;;;2.08;1.40;;;;;;;;;;4975518;28;20745;-75
2023/08/10 03:18:58;;;;;;;1.38;1.20;;;;;;;;;;4965262;28;20200;-75
2023/08/10 03:21:23;;;;;;;1.92;1.60;;;;;;;;;;4978872;28;20031;-75
2023/08/10 03:23:49;;;;;;;3.53;2.10;;;;;;;;;;4966530;28;20042;-75
2023/08/10 03:26:14;;;;;;;1.70;1.35;;;;;;;;;;4979758;28;20034;-75
2023/08/10 03:28:40;;;;;;;1.60;1.50;;;;;;;;;;4980184;28;20042;-75
2023/08/10 03:31:05;;;;;;;3.15;2.08;;;;;;;;;;4975666;28;20050;-75
2023/08/10 03:33:30;;;;;;;2.38;1.80;;;;;;;;;;4976509;28;20039;-75
2023/08/10 03:35:56;;;;;;;1.15;1.15;;;;;;;;;;4979693;28;20073;-75
2023/08/10 03:38:21;;;;;;;1.90;1.13;;;;;;;;;;4971140;28;20041;-75
2023/08/10 03:40:47;;;;;;;2.38;1.70;;;;;;;;;;4976555;28;20057;-75
2023/08/10 03:43:12;;;;;;;2.45;1.30;;;;;;;;;;4981622;28;20391;-75
2023/08/10 03:45:37;;;;;;;3.75;1.80;;;;;;;;;;4976260;28;20046;-75
2023/08/10 03:48:03;;;;;;;3.50;2.00;;;;;;;;;;4977587;28;20042;-75
2023/08/10 03:50:29;;;;;;;4.10;2.15;;;;;;;;;;4980202;28;20546;-75
2023/08/10 03:52:55;;;;;;;3.45;1.90;;;;;;;;;;4968148;28;20034;-74
2023/08/10 03:55:21;;;;;;;1.20;1.10;;;;;;;;;;4980028;28;20100;-75
2023/08/10 03:57:46;;;;;;;1.95;1.42;;;;;;;;;;4981640;28;20489;-75
2023/08/10 04:00:16;;;;;;;3.13;2.17;;;;;;;;;;4979016;28;20035;-75
2023/08/10 04:02:41;;;;;;;3.22;1.88;;;;;;;;;;4976139;28;20084;-75
2023/08/10 04:05:07;;;;;;;4.68;2.10;;;;;;;;;;4977118;28;20076;-75
2023/08/10 04:07:33;;;;;;;3.30;2.00;;;;;;;;;;4968520;28;20038;-75
2023/08/10 04:10:00;;;;;;;1.88;1.63;;;;;;;;;;4967293;28;20030;-75
2023/08/10 04:12:27;;;;;;;2.22;1.80;;;;;;;;;;4973842;28;20563;-75
2023/08/10 04:14:52;;;;;;;2.90;2.08;;;;;;;;;;4965240;28;20075;-75
2023/08/10 04:17:18;;;;;;;1.67;1.45;;;;;;;;;;4975532;28;20030;-75
2023/08/10 04:19:44;;;;;;;2.67;2.17;;;;;;;;;;4956347;28;20038;-75
2023/08/10 04:22:09;;;;;;;1.63;1.50;;;;;;;;;;4976641;28;20050;-74
2023/08/10 04:24:35;;;;;;;1.20;1.10;;;;;;;;;;4975900;28;20423;-75
2023/08/10 04:27:00;;;;;;;1.58;1.40;;;;;;;;;;4977832;28;20049;-74
2023/08/10 04:29:27;;;;;;;3.72;2.20;;;;;;;;;;4976441;28;20038;-74
2023/08/10 04:31:53;;;;;;;1.98;1.77;;;;;;;;;;4974742;28;20038;-74
2023/08/10 04:34:18;;;;;;;1.67;1.45;;;;;;;;;;4965052;28;20042;-75
2023/08/10 04:36:43;;;;;;;2.75;1.80;;;;;;;;;;4975805;28;20042;-75
2023/08/10 04:39:09;;;;;;;1.40;1.30;;;;;;;;;;4975910;28;20154;-75
2023/08/10 04:41:34;;;;;;;2.38;1.95;;;;;;;;;;4979077;28;20159;-75
2023/08/10 04:44:00;;;;;;;3.28;2.00;;;;;;;;;;4979056;28;20050;-74
2023/08/10 04:46:25;;;;;;;2.38;1.85;;;;;;;;;;4977156;28;20523;-74
2023/08/10 04:48:50;;;;;;;3.72;2.70;;;;;;;;;;4975608;28;20041;-75
2023/08/10 04:51:16;;;;;;;5.40;2.53;;;;;;;;;;4978378;28;20120;-75
2023/08/10 04:53:41;;;;;;;3.78;2.65;;;;;;;;;;4964917;28;20039;-75
2023/08/10 04:56:07;;;;;;;4.35;2.83;;;;;;;;;;4976393;28;20042;-75
2023/08/10 04:58:32;;;;;;;3.92;2.83;;;;;;;;;;4978535;28;20138;-75
2023/08/10 05:00:58;;;;;;;4.93;3.22;;;;;;;;;;4981225;28;20050;-75
2023/08/10 05:03:23;;;;;;;2.90;2.60;;;;;;;;;;4965844;28;20034;-75
2023/08/10 05:05:49;;;;;;;5.55;3.05;;;;;;;;;;4977640;28;20038;-75
2023/08/10 05:08:16;;;;;;;4.80;2.92;;;;;;;;;;4978197;28;20129;-74
2023/08/10 05:10:45;;;;;;;5.13;2.83;;;;;;;;;;4982836;28;20077;-75
2023/08/10 05:13:10;;;;;;;3.97;2.60;;;;;;;;;;4977937;28;20038;-75
2023/08/10 05:15:35;;;;;;;3.17;2.78;;;;;;;;;;4970527;28;20583;-75
2023/08/10 05:18:02;;;;;;;4.72;3.35;;;;;;;;;;4978451;28;20034;-75
2023/08/10 05:20:27;;;;;;;3.05;2.72;;;;;;;;;;4975869;28;20042;-75
2023/08/10 05:22:53;;;;;;;7.50;3.88;;;;;;;;;;4975744;28;20042;-75
2023/08/10 05:25:19;;;;;;;3.80;3.20;;;;;;;;;;4978523;28;20110;-75
2023/08/10 05:27:45;;;;;;;3.90;3.22;;;;;;;;;;4974571;28;20042;-75
2023/08/10 05:30:11;;;;;;;4.97;3.33;;;;;;;;;;4965009;28;20073;-75
2023/08/10 05:32:39;;;;;;;3.55;2.95;;;;;;;;;;4978193;28;20057;-75
2023/08/10 05:35:06;;;;;;;5.13;3.22;;;;;;;;;;4979462;28;20038;-75
2023/08/10 05:37:33;;;;;;;3.95;3.22;;;;;;;;;;4959955;28;20081;-75
2023/08/10 05:40:00;;;;;;;3.25;2.92;;;;;;;;;;4967501;28;20085;-75
2023/08/10 05:42:25;;;;;;;4.30;3.33;;;;;;;;;;4977697;28;20031;-75
2023/08/10 05:44:50;;;;;;;8.52;3.78;;;;;;;;;;4971306;28;20065;-77
2023/08/10 05:47:16;;;;;;;5.20;3.45;;;;;;;;;;4981608;28;20046;-77
2023/08/10 05:49:41;;;;;;;4.93;3.08;;;;;;;;;;4982238;28;20165;-77
2023/08/10 05:52:07;;;;;;;6.85;3.17;;;;;;;;;;4981932;28;20549;-76
2023/08/10 05:54:32;;;;;;;3.67;2.95;;;;;;;;;;4984380;28;20097;-77
2023/08/10 05:56:57;;;;;;;5.15;3.20;;;;;;;;;;4985714;28;20046;-77
2023/08/10 05:59:23;;;;;;;7.90;4.15;;;;;;;;;;4973259;28;20062;-77
2023/08/10 06:01:48;;;;;;;4.78;3.67;;;;;;;;;;4982057;28;20057;-77
2023/08/10 06:04:14;;;;;;;6.18;3.35;;;;;;;;;;4982609;28;20046;-76
2023/08/10 06:06:39;;;;;;;4.03;2.92;;;;;;;;;;4981603;28;20146;-76
2023/08/10 06:09:07;;;;;;;4.43;3.40;;;;;;;;;;4981258;28;20121;-76
2023/08/10 06:11:33;;;;;;;4.50;3.15;;;;;;;;;;4972953;28;20510;-76
2023/08/10 06:13:59;;;;;;;5.03;3.00;;;;;;;;;;4975878;28;20049;-75
2023/08/10 06:16:25;;;;;;;5.40;3.38;;;;;;;;;;4978143;28;20039;-76
2023/08/10 06:18:51;;;;;;;3.80;2.90;;;;;;;;;;4982325;28;20446;-76
2023/08/10 06:21:18;;;;;;;3.92;3.30;;;;;;;;;;4964173;28;20049;-76
2023/08/10 06:23:43;;;;;;;6.15;3.58;;;;;;;;;;4976913;28;20043;-77
2023/08/10 06:26:09;;;;;;;4.90;3.42;;;;;;;;;;4979173;28;20042;-77
2023/08/10 06:28:35;;;;;;;3.83;2.88;;;;;;;;;;4982624;28;20098;-77
2023/08/10 06:31:00;;;;;;;4.65;2.70;;;;;;;;;;4970202;28;20418;-77
2023/08/10 06:33:26;;;;;;;4.15;2.92;;;;;;;;;;4979830;28;20061;-76
2023/08/10 06:35:52;;;;;;;4.07;2.80;;;;;;;;;;4983396;28;20042;-76
2023/08/10 06:38:18;;;;;;;4.07;2.80;;;;;;;;;;4984931;28;20728;-75
2023/08/10 06:40:44;;;;;;;4.15;2.70;;;;;;;;;;4977951;28;20494;-77
2023/08/10 06:43:09;;;;;;;4.55;2.90;;;;;;;;;;4982460;28;20053;-77
2023/08/10 06:45:35;;;;;;;3.55;2.88;;;;;;;;;;4981094;28;20791;-77
2023/08/10 06:48:00;;;;;;;3.63;1.92;;;;;;;;;;4981877;28;20045;-77
2023/08/10 06:50:25;;;;;;;2.97;2.65;;;;;;;;;;4983404;28;20101;-76
2023/08/10 06:52:52;;;;;;;4.03;3.05;;;;;;;;;;4984320;28;20104;-77
2023/08/10 06:55:17;;;;;;;3.72;2.50;;;;;;;;;;4969749;28;20035;-77
2023/08/10 06:57:44;;;;;;;3.15;2.58;;;;;;;;;;4984665;28;20037;-76
2023/08/10 07:00:13;;;;;;;4.30;2.30;;;;;;;;;;4980406;28;20041;-77
2023/08/10 07:02:39;;;;;;;4.30;2.53;;;;;;;;;;4982001;28;20490;-77
2023/08/10 07:05:06;;;;;;;3.13;2.30;;;;;;;;;;4988721;28;20042;-76
2023/08/10 07:07:32;;;;;;;3.60;2.13;;;;;;;;;;4972385;28;20567;-77
2023/08/10 07:09:57;;;;;;;1.95;1.70;;;;;;;;;;4981431;28;20511;-77
2023/08/10 07:12:23;;;;;;;1.20;1.10;;;;;;;;;;4980135;28;20085;-76
2023/08/10 07:14:49;;;;;;;3.60;1.67;;;;;;;;;;4982973;28;20041;-77
2023/08/10 07:17:14;;;;;;;2.20;1.60;;;;;;;;;;4985104;28;20129;-77
2023/08/10 07:19:39;;;;;;;2.80;1.80;;;;;;;;;;4982240;28;20034;-77
2023/08/10 07:22:05;;;;;;;1.88;1.17;;;;;;;;;;4974919;28;20061;-76
2023/08/10 07:24:31;;;;;;;5.28;2.20;;;;;;;;;;4984874;28;20496;-75
2023/08/10 07:26:57;;;;;;;1.23;1.13;;;;;;;;;;4982590;28;20503;-76
2023/08/10 07:29:23;;;;;;;2.17;1.17;;;;;;;;;;4981087;28;20062;-77
2023/08/10 07:31:48;;;;;;;1.60;1.42;;;;;;;;;;4966041;28;20053;-77
2023/08/10 07:34:14;;;;;;;2.83;1.95;;;;;;;;;;4981124;28;20034;-77
2023/08/10 07:36:40;;;;;;;2.70;1.45;;;;;;;;;;4961893;28;20038;-76
2023/08/10 07:39:06;;;;;;;4.95;1.70;;;;;;;;;;4981439;28;20403;-77
2023/08/10 07:41:32;;;;;;;3.35;1.75;;;;;;;;;;4964288;28;20043;-77
2023/08/10 07:43:57;;;;;;;2.70;1.38;;;;;;;;;;4976204;28;20046;-77
2023/08/10 07:46:23;;;;;;;2.75;1.73;;;;;;;;;;4979862;28;20046;-77
2023/08/10 07:48:48;;;;;;;1.92;1.55;;;;;;;;;;4980330;28;20058;-75
2023/08/10 07:51:13;;;;;;;2.92;1.65;;;;;;;;;;4960064;28;20035;-77
2023/08/10 07:53:39;;;;;;;1.75;1.30;;;;;;;;;;4969838;28;20046;-76
2023/08/10 07:56:04;;;;;;;1.75;1.20;;;;;;;;;;4975501;28;20039;-77
2023/08/10 07:58:30;;;;;;;1.83;1.20;;;;;;;;;;4975384;28;20122;-77
2023/08/10 08:00:55;;;;;;;2.35;1.40;;;;;;;;;;4975628;28;20057;-77
2023/08/10 08:03:21;;;;;;;2.28;1.52;;;;;;;;;;4958485;28;20050;-77
2023/08/10 08:05:47;;;;;;;1.90;1.50;;;;;;;;;;4961536;28;20447;-76
2023/08/10 08:08:12;;;;;;;3.90;1.33;;;;;;;;;;4966753;28;20577;-76
2023/08/10 08:10:37;;;;;;;5.07;1.88;;;;;;;;;;4976497;28;20560;-77
2023/08/10 08:13:03;;;;;;;1.55;1.45;;;;;;;;;;4974117;28;20034;-77
2023/08/10 08:15:35;;;;;;;4.07;1.40;;;;;;;;;;4974839;28;20118;-77
2023/08/10 08:18:38;;;;;;;3.45;1.50;;;;;;;;;;4963112;28;20041;-76
2023/08/10 08:21:04;;;;;;;4.50;2.05;;;;;;;;;;4973817;28;20034;-77
2023/08/10 08:23:29;;;;;;;4.70;1.88;;;;;;;;;;4971997;28;20606;-77
2023/08/10 08:25:55;;;;;;;2.38;1.40;;;;;;;;;;4974698;28;20034;-77
2023/08/10 08:28:21;;;;;;;2.13;1.23;;;;;;;;;;4964110;28;20042;-77
2023/08/10 08:30:47;;;;;;;4.50;1.83;;;;;;;;;;4975034;28;20066;-77
2023/08/10 08:33:12;;;;;;;4.78;2.20;;;;;;;;;;4956771;28;20058;-77
2023/08/10 08:35:42;;;;;;;1.70;1.45;;;;;;;;;;4974615;28;20038;-77
2023/08/10 08:38:08;;;;;;;2.75;1.40;;;;;;;;;;4953742;28;20392;-77
2023/08/10 08:40:34;;;;;;;1.88;1.00;;;;;;;;;;4938666;28;20585;-77
2023/08/10 08:43:03;;;;;;;4.60;1.50;;;;;;;;;;4938642;28;20042;-76
2023/08/10 08:45:31;;;;;;;2.03;1.30;;;;;;;;;;4930983;28;20045;-77
2023/08/10 08:47:57;;;;;;;1.92;1.60;;;;;;;;;;4942520;28;20503;-77
2023/08/10 08:50:24;;;;;;;2.25;1.70;;;;;;;;;;4931152;28;20697;-77
2023/08/10 08:52:52;;;;;;;1.98;1.45;;;;;;;;;;4930453;28;20054;-77
2023/08/10 08:55:17;;;;;;;2.03;1.40;;;;;;;;;;4936938;28;81847;-77
2023/08/10 08:57:43;;;;;;;1.98;1.52;;;;;;;;;;4950908;28;20057;-77
2023/08/10 09:00:08;;;;;;;3.75;1.58;;;;;;;;;;4931437;28;20039;-77
2023/08/10 09:02:35;;;;;;;8.43;2.17;;;;;;;;;;4945066;28;20045;-77
2023/08/10 09:05:01;;;;;;;3.92;2.00;;;;;;;;;;4938483;28;20172;-77
2023/08/10 09:07:27;;;;;;;2.70;1.67;;;;;;;;;;4949176;28;20038;-76
2023/08/10 09:09:54;;;;;;;2.08;1.88;;;;;;;;;;4920353;28;20061;-77
2023/08/10 09:12:35;;;;;;;2.95;1.85;;;;;;;;;;4961920;28;20046;-76
2023/08/10 09:15:04;;;;;;;2.70;1.67;;;;;;;;;;4976809;28;20045;-77
2023/08/10 09:17:35;;;;;;;1.70;1.33;;;;;;;;;;4955100;28;20038;-77
2023/08/10 09:20:00;;;;;;;1.58;1.40;;;;;;;;;;4948153;28;20057;-77
2023/08/10 09:22:37;;;;;;;3.30;1.67;;;;;;;;;;4946935;28;20042;-77
2023/08/10 09:25:05;;;;;;;3.35;1.92;;;;;;;;;;4953674;28;20053;-77
2023/08/10 09:27:30;;;;;;;1.75;1.63;;;;;;;;;;4944066;28;20957;-77
2023/08/10 09:30:04;;;;;;;4.30;1.48;;;;;;;;;;4958253;28;20569;-77
2023/08/10 09:32:30;;;;;;;2.22;1.27;;;;;;;;;;4956402;28;20049;-76
2023/08/10 09:34:55;;;;;;;5.18;1.88;;;;;;;;;;4955317;28;20540;-77
2023/08/10 09:37:23;;;;;;;2.53;1.77;;;;;;;;;;4956990;28;20049;-77
2023/08/10 09:39:53;;;;;;;3.10;1.42;;;;;;;;;;4956062;28;20046;-77
2023/08/10 09:42:19;;;;;;;;;;;;;;;;;;4967124;28;20160;-77
2023/08/10 09:44:46;;;;;;;1.92;1.60;;;;;;;;;;4962008;28;19928;-77
2023/08/10 09:47:14;;;;;;;1.45;1.30;;;;;;;;;;4967138;28;20161;-77
2023/08/10 09:49:55;;;;;;;2.08;1.30;;;;;;;;;;4960731;28;20046;-77
2023/08/10 09:52:22;;;;;;;1.85;1.48;;;;;;;;;;4945431;28;20042;-77
2023/08/10 09:54:50;;;;;;;3.88;1.35;;;;;;;;;;4957567;28;20507;-77
2023/08/10 09:57:17;;;;;;;3.38;1.60;;;;;;;;;;4968584;28;20042;-77
2023/08/10 09:59:43;;;;;;;2.58;1.35;;;;;;;;;;4973587;28;20446;-77
2023/08/10 10:02:10;;;;;;;3.65;1.77;;;;;;;;;;4954322;28;20410;-77
2023/08/10 10:04:36;;;;;;;1.42;1.13;;;;;;;;;;4959735;28;20039;-77
2023/08/10 10:07:01;;;;;;;1.65;1.30;;;;;;;;;;4942828;28;20134;-78
2023/08/10 10:09:29;;;;;;;1.83;1.42;;;;;;;;;;4957616;28;20490;-77
2023/08/10 10:11:58;;;;;;;1.95;1.40;;;;;;;;;;4948955;28;20510;-77
2023/08/10 10:14:24;;;;;;;2.20;1.35;;;;;;;;;;4946421;28;20043;-77
2023/08/10 10:16:51;;;;;;;1.50;1.30;;;;;;;;;;4955886;28;20042;-77
2023/08/10 10:19:17;;;;;;;2.75;1.50;;;;;;;;;;4961803;28;20176;-77
2023/08/10 10:21:44;;;;;;;1.60;1.23;;;;;;;;;;4964882;28;20097;-77
2023/08/10 10:24:12;;;;;;;1.80;1.27;;;;;;;;;;4963907;28;20525;-77
2023/08/10 10:26:38;;;;;;;1.60;1.48;;;;;;;;;;4977180;28;21964;-77
2023/08/10 10:29:21;;;;;;;3.58;1.90;;;;;;;;;;4970666;28;20038;-77
2023/08/10 10:31:47;;;;;;;1.77;1.30;;;;;;;;;;4954024;28;20587;-77
2023/08/10 10:34:17;;;;;;;2.10;1.70;;;;;;;;;;4954476;28;20053;-77
2023/08/10 10:36:44;;;;;;;2.40;1.30;;;;;;;;;;4977689;28;20070;-78
2023/08/10 10:39:11;;;;;;;3.83;1.83;;;;;;;;;;4972647;28;20102;-78
2023/08/10 10:41:41;;;;;;;1.50;1.40;;;;;;;;;;4930757;28;20046;-77
2023/08/10 10:44:08;;;;;;;1.33;1.20;;;;;;;;;;4942217;28;20053;-77
2023/08/10 10:46:33;;;;;;;3.97;1.80;;;;;;;;;;4953424;28;20145;-77
2023/08/10 10:49:00;;;;;;;4.43;1.83;;;;;;;;;;4962270;28;20041;-76
2023/08/10 10:51:28;;;;;;;1.83;1.52;;;;;;;;;;4958572;28;20051;-77
2023/08/10 10:53:54;;;;;;;2.72;1.63;;;;;;;;;;4965277;28;20048;-78
2023/08/10 10:56:20;;;;;;;1.20;1.00;;;;;;;;;;4963781;28;20056;-76
2023/08/10 10:58:47;;;;;;;2.35;1.40;;;;;;;;;;4954066;28;20729;-77
2023/08/10 11:01:14;;;;;;;3.63;1.10;;;;;;;;;;4968956;28;20100;-78
2023/08/10 11:03:42;;;;;;;2.25;1.35;;;;;;;;;;4967053;28;20037;-77
2023/08/10 11:06:12;;;;;;;4.03;1.55;;;;;;;;;;4941625;28;20042;-78
2023/08/10 11:08:37;;;;;;;2.70;1.42;;;;;;;;;;4957715;28;20038;-78
2023/08/10 11:11:03;;;;;;;1.45;1.20;;;;;;;;;;4958856;28;20047;-76
2023/08/10 11:13:29;;;;;;;1.70;1.55;;;;;;;;;;4942549;28;20287;-77
2023/08/10 11:15:54;;;;;;;2.35;1.20;;;;;;;;;;4973592;28;20984;-78
2023/08/10 11:18:20;;;;;;;2.13;1.58;;;;;;;;;;4976952;28;20120;-77
2023/08/10 11:20:48;;;;;;;1.65;1.13;;;;;;;;;;4968933;28;20124;-78
2023/08/10 11:23:14;;;;;;;2.10;1.35;;;;;;;;;;4947711;28;22482;-77
2023/08/10 11:25:52;;;;;;;2.38;1.35;;;;;;;;;;4963703;28;20069;-77
2023/08/10 11:28:20;;;;;;;3.20;1.30;;;;;;;;;;4969385;28;20038;-78
2023/08/10 11:30:48;;;;;;;1.77;1.30;;;;;;;;;;4961873;28;20048;-77
2023/08/10 11:33:14;;;;;;;4.70;1.58;;;;;;;;;;4966846;28;20086;-76
2023/08/10 11:35:44;;;;;;;3.13;1.33;;;;;;;;;;4955108;28;20056;-77
2023/08/10 11:38:09;;;;;;;1.75;1.52;;;;;;;;;;4966670;28;20053;-77
2023/08/10 11:40:35;;;;;;;1.67;1.10;;;;;;;;;;4968576;28;20047;-76
2023/08/10 11:43:10;;;;;;;1.98;1.40;;;;;;;;;;4951455;28;20593;-78
2023/08/10 11:45:37;;;;;;;1.75;1.10;;;;;;;;;;4951251;28;20065;-77
2023/08/10 11:48:06;;;;;;;3.70;1.27;;;;;;;;;;4958363;28;20045;-78
2023/08/10 11:50:32;;;;;;;1.13;0.95;;;;;;;;;;4969258;28;20156;-78
2023/08/10 11:53:22;;;;;;;1.60;0.85;;;;;;;;;;4979837;28;20077;-78
2023/08/10 11:55:49;;;;;;;2.35;1.35;;;;;;;;;;4973907;28;20037;-77
2023/08/10 11:58:17;;;;;;;2.50;1.55;;;;;;;;;;4967627;28;20131;-77
2023/08/10 12:00:44;;;;;;;3.55;1.83;;;;;;;;;;4968783;28;20414;-78
2023/08/10 12:03:18;;;;;;;2.35;1.35;;;;;;;;;;4973950;28;20050;-77
2023/08/10 12:05:49;;;;;;;1.65;1.10;;;;;;;;;;4970732;28;20152;-76
2023/08/10 12:08:19;;;;;;;1.27;1.17;;;;;;;;;;4974344;28;20046;-76
2023/08/10 12:10:50;;;;;;;3.47;1.30;;;;;;;;;;4957796;28;20045;-77
2023/08/10 12:13:20;;;;;;;1.73;1.38;;;;;;;;;;4939611;28;21096;-77
2023/08/10 12:15:46;;;;;;;0.73;0.73;;;;;;;;;;4969956;28;20042;-78
2023/08/10 12:18:14;;;;;;;2.22;1.30;;;;;;;;;;4963789;28;20062;-77
2023/08/10 12:20:40;;;;;;;2.33;1.40;;;;;;;;;;4970646;28;20052;-77
2023/08/10 12:23:08;;;;;;;2.30;1.50;;;;;;;;;;4977640;28;20049;-78
2023/08/10 12:25:33;;;;;;;1.92;1.20;;;;;;;;;;4958407;28;20042;-77
2023/08/10 12:27:59;;;;;;;2.83;1.70;;;;;;;;;;4975926;28;20037;-77
2023/08/10 12:30:24;;;;;;;1.08;0.88;;;;;;;;;;4960744;28;20042;-76
2023/08/10 12:32:50;;;;;;;1.33;0.93;;;;;;;;;;4979203;28;20612;-77
2023/08/10 12:35:15;;;;;;;2.47;1.75;;;;;;;;;;4971611;28;20287;-78
2023/08/10 12:37:41;;;;;;;2.70;1.50;;;;;;;;;;4953319;28;20106;-77
2023/08/10 12:40:08;;;;;;;2.90;1.30;;;;;;;;;;4968161;28;20037;-76
2023/08/10 12:42:33;;;;;;;1.90;0.95;;;;;;;;;;4947591;28;20121;-77
2023/08/10 12:44:58;;;;;;;1.20;1.10;;;;;;;;;;4971356;28;20156;-77
2023/08/10 12:47:24;;;;;;;1.90;1.20;;;;;;;;;;4966495;28;20088;-78
2023/08/10 12:49:49;;;;;;;1.23;1.00;;;;;;;;;;4967988;28;20049;-77
2023/08/10 12:52:15;;;;;;;3.78;1.90;;;;;;;;;;4960881;28;20075;-77
2023/08/10 12:54:40;;;;;;;2.30;1.20;;;;;;;;;;4959851;28;20050;-78
2023/08/10 12:57:05;;;;;;;3.42;1.50;;;;;;;;;;4962727;28;20128;-77
2023/08/10 12:59:31;;;;;;;2.00;1.23;;;;;;;;;;4966648;28;20097;-77
2023/08/10 13:01:56;;;;;;;1.20;1.10;;;;;;;;;;4937700;28;20411;-77
2023/08/10 13:04:22;;;;;;;2.50;1.42;;;;;;;;;;4978298;28;20458;-78
2023/08/10 13:06:47;;;;;;;3.60;1.58;;;;;;;;;;4975673;28;20247;-78
2023/08/10 13:09:12;;;;;;;2.10;1.25;;;;;;;;;;4951255;28;20039;-77
2023/08/10 13:11:38;;;;;;;2.75;1.35;;;;;;;;;;4941638;28;20042;-77
2023/08/10 13:14:06;;;;;;;1.10;1.00;;;;;;;;;;4979047;28;20038;-77
2023/08/10 13:16:31;;;;;;;1.08;0.90;;;;;;;;;;4964832;28;20471;-78
2023/08/10 13:18:57;;;;;;;2.30;1.17;;;;;;;;;;4975528;28;20042;-78
2023/08/10 13:21:23;;;;;;;1.83;1.27;;;;;;;;;;4928492;28;20148;-78
2023/08/10 13:23:49;;;;;;;1.92;1.13;;;;;;;;;;4963004;28;20042;-77
2023/08/10 13:26:16;;;;;;;1.70;1.10;;;;;;;;;;4980949;28;20041;-77
2023/08/10 13:28:41;;;;;;;1.58;1.23;;;;;;;;;;4973665;28;20097;-78
2023/08/10 13:31:07;;;;;;;2.45;1.10;;;;;;;;;;4967531;28;20046;-78
2023/08/10 13:33:33;;;;;;;4.63;1.30;;;;;;;;;;4942001;28;20071;-77
2023/08/10 13:36:00;;;;;;;2.58;1.05;;;;;;;;;;4960496;28;20038;-77
2023/08/10 13:38:26;;;;;;;1.75;1.10;;;;;;;;;;4962931;28;20120;-78
2023/08/10 13:40:52;;;;;;;1.50;0.95;;;;;;;;;;4976501;28;20037;-77
2023/08/10 13:43:17;;;;;;;2.92;1.42;;;;;;;;;;4961719;28;20054;-78
2023/08/10 13:45:42;;;;;;;2.72;1.33;;;;;;;;;;4953029;28;20518;-76
2023/08/10 13:48:09;;;;;;;1.48;1.10;;;;;;;;;;4960951;28;20123;-77
2023/08/10 13:50:35;;;;;;;1.77;1.13;;;;;;;;;;4966149;28;20041;-77
2023/08/10 13:53:01;;;;;;;1.98;1.00;;;;;;;;;;4978806;28;20033;-77
2023/08/10 13:55:26;;;;;;;1.40;1.30;;;;;;;;;;4974713;28;20054;-77
2023/08/10 13:57:51;;;;;;;3.22;1.17;;;;;;;;;;4978122;28;20057;-78
2023/08/10 14:00:18;;;;;;;2.15;1.00;;;;;;;;;;4950374;28;20035;-76
2023/08/10 14:02:43;;;;;;;2.13;1.02;;;;;;;;;;4968650;28;20053;-77
2023/08/10 14:05:12;;;;;;;1.63;0.98;;;;;;;;;;4960577;28;20046;-78
2023/08/10 14:07:38;;;;;;;1.50;0.90;;;;;;;;;;4974957;28;20042;-77
2023/08/10 14:10:04;;;;;;;2.80;1.33;;;;;;;;;;4927686;28;20053;-77
2023/08/10 14:12:30;;;;;;;3.25;1.23;;;;;;;;;;4949476;28;20038;-77
2023/08/10 14:14:55;;;;;;;2.35;1.20;;;;;;;;;;4967645;28;20128;-77
2023/08/10 14:17:21;;;;;;;2.05;1.00;;;;;;;;;;4954440;28;20037;-77
2023/08/10 14:19:46;;;;;;;1.00;0.90;;;;;;;;;;4965221;28;20049;-78
2023/08/10 14:22:12;;;;;;;2.08;0.90;;;;;;;;;;4968413;28;20425;-77
2023/08/10 14:24:37;;;;;;;1.70;1.20;;;;;;;;;;4972491;28;20073;-77
2023/08/10 14:27:03;;;;;;;1.30;0.80;;;;;;;;;;4967533;28;20066;-78
2023/08/10 14:29:28;;;;;;;1.17;0.98;;;;;;;;;;4951842;28;20045;-78
2023/08/10 14:31:54;;;;;;;1.83;1.00;;;;;;;;;;4969376;28;20057;-77
2023/08/10 14:34:19;;;;;;;2.17;1.08;;;;;;;;;;4977191;28;20592;-78
2023/08/10 14:36:45;;;;;;;0.95;0.90;;;;;;;;;;4955519;28;20050;-77
2023/08/10 14:39:12;;;;;;;1.60;1.30;;;;;;;;;;4958053;28;20048;-78